createdAt,value
2017-08-30T00:00:28.060Z,22.03
2017-08-30T00:00:59.608Z,22.03
2017-08-30T00:01:31.401Z,22.03
2017-08-30T00:02:02.980Z,22.01
2017-08-30T00:02:34.682Z,22.02
2017-08-30T00:03:06.322Z,22.01
2017-08-30T00:03:37.951Z,22.00
2017-08-30T00:04:09.586Z,21.99
2017-08-30T00:04:41.264Z,21.99
2017-08-30T00:05:13.198Z,21.98
2017-08-30T00:05:44.832Z,21.99
2017-08-30T00:06:16.446Z,21.99
2017-08-30T00:06:48.123Z,21.99
2017-08-30T00:07:19.761Z,21.99
2017-08-30T00:07:51.393Z,21.99
2017-08-30T00:08:23.039Z,21.99
2017-08-30T00:08:54.692Z,21.99
2017-08-30T00:09:26.351Z,22.00
2017-08-30T00:09:57.989Z,22.01
2017-08-30T00:10:29.720Z,21.99
2017-08-30T00:11:02.464Z,22.01
2017-08-30T00:11:34.147Z,22.02
2017-08-30T00:12:05.737Z,22.00
2017-08-30T00:12:37.536Z,22.02
2017-08-30T00:13:09.378Z,22.02
2017-08-30T00:13:41.008Z,22.00
2017-08-30T00:14:12.650Z,22.00
2017-08-30T00:14:44.241Z,22.00
2017-08-30T00:15:15.912Z,22.01
2017-08-30T00:15:47.706Z,22.01
2017-08-30T00:16:19.303Z,22.01
2017-08-30T00:16:50.893Z,22.01
2017-08-30T00:17:22.453Z,22.01
2017-08-30T00:17:54.250Z,22.01
2017-08-30T00:18:25.937Z,22.00
2017-08-30T00:18:57.511Z,22.01
2017-08-30T00:19:29.102Z,22.00
2017-08-30T00:20:00.811Z,21.99
2017-08-30T00:20:32.478Z,22.00
2017-08-30T00:21:04.313Z,21.99
2017-08-30T00:21:35.950Z,21.97
2017-08-30T00:22:07.593Z,21.98
2017-08-30T00:22:39.223Z,21.96
2017-08-30T00:23:10.867Z,21.97
2017-08-30T00:23:42.510Z,21.96
2017-08-30T00:24:14.151Z,21.96
2017-08-30T00:24:45.788Z,21.96
2017-08-30T00:25:17.416Z,21.96
2017-08-30T00:25:49.084Z,21.97
2017-08-30T00:26:20.722Z,21.97
2017-08-30T00:26:52.365Z,21.97
2017-08-30T00:27:23.948Z,21.96
2017-08-30T00:27:55.632Z,21.96
2017-08-30T00:28:27.297Z,21.96
2017-08-30T00:28:58.927Z,21.96
2017-08-30T00:29:30.501Z,21.95
2017-08-30T00:30:02.206Z,21.96
2017-08-30T00:30:33.850Z,21.94
2017-08-30T00:31:05.489Z,21.95
2017-08-30T00:31:37.150Z,21.94
2017-08-30T00:32:08.741Z,21.94
2017-08-30T00:32:40.525Z,21.95
2017-08-30T00:33:12.370Z,21.95
2017-08-30T00:33:43.994Z,21.95
2017-08-30T00:34:15.756Z,21.96
2017-08-30T00:34:47.604Z,21.96
2017-08-30T00:35:19.186Z,21.96
2017-08-30T00:35:50.991Z,21.96
2017-08-30T00:36:22.565Z,21.95
2017-08-30T00:36:54.470Z,21.94
2017-08-30T00:37:26.175Z,21.96
2017-08-30T00:37:57.756Z,21.96
2017-08-30T00:38:29.333Z,21.95
2017-08-30T00:39:01.053Z,21.95
2017-08-30T00:39:32.637Z,21.96
2017-08-30T00:40:04.205Z,21.95
2017-08-30T00:40:35.766Z,21.94
2017-08-30T00:41:07.338Z,21.93
2017-08-30T00:41:38.927Z,21.94
2017-08-30T00:42:10.515Z,21.94
2017-08-30T00:42:42.231Z,21.94
2017-08-30T00:43:13.878Z,21.94
2017-08-30T00:43:45.499Z,21.94
2017-08-30T00:44:17.162Z,21.94
2017-08-30T00:44:48.784Z,21.94
2017-08-30T00:45:20.442Z,21.95
2017-08-30T00:45:52.106Z,21.94
2017-08-30T00:46:23.733Z,21.94
2017-08-30T00:46:55.365Z,21.95
2017-08-30T00:47:27.116Z,21.94
2017-08-30T00:47:58.941Z,21.94
2017-08-30T00:48:30.513Z,21.94
2017-08-30T00:49:02.091Z,21.94
2017-08-30T00:49:34.000Z,21.94
2017-08-30T00:50:05.827Z,21.94
2017-08-30T00:50:37.400Z,21.93
2017-08-30T00:51:09.116Z,21.93
2017-08-30T00:51:42.509Z,21.93
2017-08-30T00:52:14.245Z,21.92
2017-08-30T00:52:46.233Z,21.92
2017-08-30T00:53:17.877Z,21.92
2017-08-30T00:53:49.611Z,21.91
2017-08-30T00:54:21.405Z,21.91
2017-08-30T00:54:53.070Z,21.91
2017-08-30T00:55:24.717Z,21.90
2017-08-30T00:55:56.354Z,21.92
2017-08-30T00:56:27.941Z,21.92
2017-08-30T00:56:59.626Z,21.93
2017-08-30T00:57:31.263Z,21.94
2017-08-30T00:58:03.214Z,21.94
2017-08-30T00:58:34.862Z,21.96
2017-08-30T00:59:06.507Z,21.96
2017-08-30T00:59:38.141Z,21.96
2017-08-30T01:00:09.820Z,21.97
2017-08-30T01:00:41.388Z,21.96
2017-08-30T01:01:13.098Z,21.98
2017-08-30T01:01:44.726Z,21.98
2017-08-30T01:02:16.338Z,21.97
2017-08-30T01:02:48.017Z,21.98
2017-08-30T01:03:19.942Z,21.96
2017-08-30T01:03:51.589Z,21.97
2017-08-30T01:04:23.226Z,21.97
2017-08-30T01:04:54.879Z,21.98
2017-08-30T01:05:26.525Z,21.98
2017-08-30T01:05:58.267Z,21.98
2017-08-30T01:06:29.847Z,21.98
2017-08-30T01:07:01.548Z,21.98
2017-08-30T01:07:33.343Z,21.98
2017-08-30T01:08:04.911Z,21.98
2017-08-30T01:08:36.988Z,21.98
2017-08-30T01:09:08.643Z,21.97
2017-08-30T01:09:40.267Z,21.96
2017-08-30T01:10:12.030Z,21.97
2017-08-30T01:10:43.871Z,21.97
2017-08-30T01:11:15.492Z,21.95
2017-08-30T01:11:47.149Z,21.97
2017-08-30T01:12:18.717Z,21.95
2017-08-30T01:12:50.426Z,21.95
2017-08-30T01:13:22.058Z,21.95
2017-08-30T01:13:53.720Z,21.94
2017-08-30T01:14:25.359Z,21.95
2017-08-30T01:14:57.276Z,21.94
2017-08-30T01:15:28.864Z,21.94
2017-08-30T01:16:00.606Z,21.95
2017-08-30T01:16:32.249Z,21.93
2017-08-30T01:17:03.898Z,21.93
2017-08-30T01:17:35.472Z,21.93
2017-08-30T01:18:07.259Z,21.93
2017-08-30T01:18:38.898Z,21.92
2017-08-30T01:19:10.469Z,21.92
2017-08-30T01:19:42.070Z,21.92
2017-08-30T01:20:13.719Z,21.94
2017-08-30T01:20:45.342Z,21.94
2017-08-30T01:21:17.005Z,21.93
2017-08-30T01:21:48.637Z,21.93
2017-08-30T01:22:20.239Z,21.93
2017-08-30T01:22:51.940Z,21.92
2017-08-30T01:23:23.576Z,21.92
2017-08-30T01:23:55.210Z,21.92
2017-08-30T01:24:26.884Z,21.92
2017-08-30T01:24:58.471Z,21.91
2017-08-30T01:25:30.244Z,21.92
2017-08-30T01:26:02.083Z,21.91
2017-08-30T01:26:33.833Z,21.92
2017-08-30T01:27:05.702Z,21.92
2017-08-30T01:27:37.319Z,21.91
2017-08-30T01:28:08.961Z,21.91
2017-08-30T01:28:40.609Z,21.91
2017-08-30T01:29:12.257Z,21.90
2017-08-30T01:29:43.907Z,21.89
2017-08-30T01:30:15.549Z,21.90
2017-08-30T01:30:47.172Z,21.89
2017-08-30T01:31:18.744Z,21.90
2017-08-30T01:31:50.459Z,21.90
2017-08-30T01:32:22.096Z,21.90
2017-08-30T01:32:53.671Z,21.89
2017-08-30T01:33:25.389Z,21.89
2017-08-30T01:33:57.128Z,21.88
2017-08-30T01:34:28.977Z,21.88
2017-08-30T01:35:00.941Z,21.88
2017-08-30T01:35:32.585Z,21.88
2017-08-30T01:36:04.201Z,21.88
2017-08-30T01:36:35.883Z,21.89
2017-08-30T01:37:07.498Z,21.89
2017-08-30T01:37:39.144Z,21.90
2017-08-30T01:38:10.803Z,21.84
2017-08-30T01:38:42.387Z,21.89
2017-08-30T01:39:14.077Z,21.89
2017-08-30T01:39:45.688Z,21.88
2017-08-30T01:40:17.373Z,21.87
2017-08-30T01:40:48.990Z,21.87
2017-08-30T01:41:20.629Z,21.86
2017-08-30T01:41:52.269Z,21.87
2017-08-30T01:42:23.907Z,21.86
2017-08-30T01:42:55.555Z,21.87
2017-08-30T01:43:27.202Z,21.86
2017-08-30T01:43:58.794Z,21.84
2017-08-30T01:44:30.625Z,21.86
2017-08-30T01:45:02.432Z,21.85
2017-08-30T01:45:34.071Z,21.84
2017-08-30T01:46:05.724Z,21.85
2017-08-30T01:46:37.352Z,21.86
2017-08-30T01:47:09.008Z,21.85
2017-08-30T01:47:40.656Z,21.84
2017-08-30T01:48:12.689Z,21.84
2017-08-30T01:48:44.534Z,21.84
2017-08-30T01:49:16.197Z,21.84
2017-08-30T01:49:47.778Z,21.83
2017-08-30T01:50:19.365Z,21.85
2017-08-30T01:50:51.131Z,21.84
2017-08-30T01:51:22.745Z,21.85
2017-08-30T01:51:54.407Z,21.83
2017-08-30T01:52:26.066Z,21.84
2017-08-30T01:52:57.679Z,21.83
2017-08-30T01:53:29.325Z,21.82
2017-08-30T01:54:00.948Z,21.82
2017-08-30T01:54:32.612Z,21.82
2017-08-30T01:55:04.242Z,21.82
2017-08-30T01:55:35.887Z,21.82
2017-08-30T01:56:07.485Z,21.82
2017-08-30T01:56:39.158Z,21.82
2017-08-30T01:57:10.806Z,21.83
2017-08-30T01:57:42.478Z,21.83
2017-08-30T01:58:14.085Z,21.80
2017-08-30T01:58:45.731Z,21.81
2017-08-30T01:59:17.402Z,21.81
2017-08-30T01:59:49.000Z,21.80
2017-08-30T02:00:20.669Z,21.81
2017-08-30T02:00:52.262Z,21.81
2017-08-30T02:01:23.926Z,21.83
2017-08-30T02:01:55.669Z,21.82
2017-08-30T02:02:27.274Z,21.81
2017-08-30T02:02:59.172Z,21.82
2017-08-30T02:03:30.816Z,21.82
2017-08-30T02:04:02.446Z,21.82
2017-08-30T02:04:34.125Z,21.82
2017-08-30T02:05:05.844Z,21.83
2017-08-30T02:05:37.423Z,21.82
2017-08-30T02:06:09.024Z,21.82
2017-08-30T02:06:40.770Z,21.82
2017-08-30T02:07:12.630Z,21.81
2017-08-30T02:07:44.246Z,21.82
2017-08-30T02:08:15.905Z,21.83
2017-08-30T02:08:47.545Z,21.84
2017-08-30T02:09:19.191Z,21.83
2017-08-30T02:09:50.819Z,21.82
2017-08-30T02:10:22.495Z,21.83
2017-08-30T02:10:54.102Z,21.83
2017-08-30T02:11:25.761Z,21.83
2017-08-30T02:11:57.668Z,21.83
2017-08-30T02:12:29.352Z,21.83
2017-08-30T02:13:00.937Z,21.83
2017-08-30T02:13:32.732Z,21.84
2017-08-30T02:14:04.597Z,21.83
2017-08-30T02:14:36.180Z,21.82
2017-08-30T02:15:07.857Z,21.83
2017-08-30T02:15:39.504Z,21.82
2017-08-30T02:16:11.152Z,21.83
2017-08-30T02:16:42.752Z,21.82
2017-08-30T02:17:14.791Z,21.83
2017-08-30T02:17:46.377Z,21.81
2017-08-30T02:18:18.006Z,21.81
2017-08-30T02:18:49.573Z,21.81
2017-08-30T02:19:21.314Z,21.80
2017-08-30T02:19:52.943Z,21.80
2017-08-30T02:20:24.583Z,21.80
2017-08-30T02:20:56.228Z,21.80
2017-08-30T02:21:27.877Z,21.80
2017-08-30T02:21:59.502Z,21.81
2017-08-30T02:22:31.160Z,21.81
2017-08-30T02:23:02.793Z,21.80
2017-08-30T02:23:34.362Z,21.81
2017-08-30T02:24:06.081Z,21.81
2017-08-30T02:24:37.997Z,21.83
2017-08-30T02:25:09.663Z,21.84
2017-08-30T02:25:41.300Z,21.85
2017-08-30T02:26:12.876Z,21.85
2017-08-30T02:26:44.696Z,21.86
2017-08-30T02:27:16.529Z,21.87
2017-08-30T02:27:48.195Z,21.87
2017-08-30T02:28:19.811Z,21.88
2017-08-30T02:28:51.452Z,21.89
2017-08-30T02:29:23.049Z,21.90
2017-08-30T02:29:55.026Z,21.92
2017-08-30T02:30:26.624Z,21.92
2017-08-30T02:30:58.200Z,21.88
2017-08-30T02:31:29.788Z,21.83
2017-08-30T02:32:01.357Z,21.79
2017-08-30T02:32:33.361Z,21.76
2017-08-30T02:33:13.404Z,21.73
2017-08-30T02:33:45.757Z,21.70
2017-08-30T02:34:17.430Z,21.68
2017-08-30T02:34:49.070Z,21.66
2017-08-30T02:35:20.982Z,21.64
2017-08-30T02:35:58.788Z,21.64
2017-08-30T02:36:30.717Z,21.63
2017-08-30T02:37:02.392Z,21.62
2017-08-30T02:37:34.018Z,21.60
2017-08-30T02:38:05.972Z,21.51
2017-08-30T02:38:37.545Z,21.45
2017-08-30T02:39:10.303Z,21.40
2017-08-30T02:39:42.111Z,21.37
2017-08-30T02:40:14.077Z,21.33
2017-08-30T02:40:48.592Z,21.33
2017-08-30T02:41:23.922Z,21.22
2017-08-30T02:41:56.067Z,21.30
2017-08-30T02:42:27.626Z,21.28
2017-08-30T02:42:59.210Z,21.24
2017-08-30T02:43:31.089Z,21.21
2017-08-30T02:44:02.685Z,21.20
2017-08-30T02:44:34.380Z,21.16
2017-08-30T02:45:05.973Z,21.15
2017-08-30T02:45:37.850Z,21.15
2017-08-30T02:46:09.489Z,21.15
2017-08-30T02:46:41.159Z,21.13
2017-08-30T02:47:13.073Z,21.09
2017-08-30T02:47:44.721Z,21.09
2017-08-30T02:48:16.303Z,21.09
2017-08-30T02:48:48.005Z,21.08
2017-08-30T02:49:19.575Z,21.08
2017-08-30T02:49:51.169Z,21.07
2017-08-30T02:50:22.746Z,21.07
2017-08-30T02:50:54.393Z,21.04
2017-08-30T02:51:26.234Z,21.03
2017-08-30T02:51:57.860Z,21.00
2017-08-30T02:52:29.439Z,20.99
2017-08-30T02:53:01.169Z,21.01
2017-08-30T02:53:32.807Z,21.06
2017-08-30T02:54:04.464Z,21.11
2017-08-30T02:54:36.089Z,21.14
2017-08-30T02:55:07.675Z,21.19
2017-08-30T02:55:39.365Z,21.20
2017-08-30T02:56:11.020Z,21.23
2017-08-30T02:56:42.605Z,21.25
2017-08-30T02:57:14.279Z,21.27
2017-08-30T02:57:45.959Z,21.28
2017-08-30T02:58:17.567Z,21.28
2017-08-30T02:58:49.219Z,21.29
2017-08-30T02:59:21.159Z,21.29
2017-08-30T02:59:52.844Z,21.29
2017-08-30T03:00:24.456Z,21.29
2017-08-30T03:00:56.110Z,21.29
2017-08-30T03:01:27.738Z,21.29
2017-08-30T03:01:59.368Z,21.28
2017-08-30T03:02:31.297Z,21.29
2017-08-30T03:03:02.973Z,21.28
2017-08-30T03:03:34.548Z,21.27
2017-08-30T03:04:06.263Z,21.28
2017-08-30T03:04:37.859Z,21.28
2017-08-30T03:05:09.529Z,21.27
2017-08-30T03:05:41.166Z,21.27
2017-08-30T03:06:12.812Z,21.27
2017-08-30T03:06:44.443Z,21.27
2017-08-30T03:07:16.085Z,21.27
2017-08-30T03:07:47.652Z,21.26
2017-08-30T03:08:19.402Z,21.27
2017-08-30T03:08:51.269Z,21.25
2017-08-30T03:09:22.982Z,21.26
2017-08-30T03:09:54.609Z,21.25
2017-08-30T03:10:26.194Z,21.26
2017-08-30T03:10:57.890Z,21.25
2017-08-30T03:11:29.466Z,21.25
2017-08-30T03:12:01.223Z,21.25
2017-08-30T03:12:32.800Z,21.25
2017-08-30T03:13:04.467Z,21.25
2017-08-30T03:13:36.138Z,21.25
2017-08-30T03:14:07.744Z,21.24
2017-08-30T03:14:39.390Z,21.23
2017-08-30T03:15:11.042Z,21.24
2017-08-30T03:15:42.692Z,21.23
2017-08-30T03:16:14.261Z,21.22
2017-08-30T03:16:45.823Z,21.22
2017-08-30T03:17:17.413Z,21.22
2017-08-30T03:17:49.663Z,21.22
2017-08-30T03:18:21.520Z,21.22
2017-08-30T03:18:53.138Z,21.22
2017-08-30T03:19:24.787Z,21.21
2017-08-30T03:19:56.382Z,21.22
2017-08-30T03:20:28.374Z,21.21
2017-08-30T03:21:00.010Z,21.21
2017-08-30T03:21:31.669Z,21.20
2017-08-30T03:22:03.320Z,21.21
2017-08-30T03:22:35.244Z,21.21
2017-08-30T03:23:06.895Z,21.19
2017-08-30T03:23:38.534Z,21.19
2017-08-30T03:24:10.167Z,21.20
2017-08-30T03:24:41.815Z,21.20
2017-08-30T03:25:13.500Z,21.20
2017-08-30T03:25:45.288Z,21.19
2017-08-30T03:26:17.057Z,21.19
2017-08-30T03:26:48.714Z,21.18
2017-08-30T03:27:20.322Z,21.18
2017-08-30T03:27:51.991Z,21.19
2017-08-30T03:28:23.612Z,21.18
2017-08-30T03:28:55.268Z,21.18
2017-08-30T03:29:26.917Z,21.18
2017-08-30T03:29:58.516Z,21.17
2017-08-30T03:30:30.306Z,21.17
2017-08-30T03:31:02.090Z,21.17
2017-08-30T03:31:33.793Z,21.17
2017-08-30T03:32:05.415Z,21.17
2017-08-30T03:32:37.051Z,21.16
2017-08-30T03:33:08.725Z,21.16
2017-08-30T03:33:40.347Z,21.15
2017-08-30T03:34:11.991Z,21.15
2017-08-30T03:34:43.638Z,21.16
2017-08-30T03:35:15.281Z,21.16
2017-08-30T03:35:46.906Z,21.16
2017-08-30T03:36:18.664Z,21.15
2017-08-30T03:36:50.496Z,21.14
2017-08-30T03:37:22.145Z,21.14
2017-08-30T03:37:53.777Z,21.15
2017-08-30T03:38:25.427Z,21.14
2017-08-30T03:38:57.065Z,21.14
2017-08-30T03:39:28.734Z,21.14
2017-08-30T03:40:00.354Z,21.13
2017-08-30T03:40:31.994Z,21.13
2017-08-30T03:41:03.648Z,21.13
2017-08-30T03:41:35.245Z,21.11
2017-08-30T03:42:07.032Z,21.13
2017-08-30T03:42:38.737Z,21.13
2017-08-30T03:43:10.510Z,21.12
2017-08-30T03:43:42.101Z,21.12
2017-08-30T03:44:13.836Z,21.11
2017-08-30T03:44:45.414Z,21.11
2017-08-30T03:45:17.080Z,21.12
2017-08-30T03:45:48.737Z,21.12
2017-08-30T03:46:20.410Z,21.11
2017-08-30T03:46:52.037Z,21.10
2017-08-30T03:47:23.662Z,21.11
2017-08-30T03:47:55.307Z,21.11
2017-08-30T03:48:26.968Z,21.10
2017-08-30T03:48:58.596Z,21.10
2017-08-30T03:49:30.219Z,21.10
2017-08-30T03:50:01.899Z,21.10
2017-08-30T03:50:33.607Z,21.09
2017-08-30T03:51:05.425Z,21.10
2017-08-30T03:51:37.013Z,21.10
2017-08-30T03:52:08.759Z,21.09
2017-08-30T03:52:40.366Z,21.08
2017-08-30T03:53:11.964Z,21.09
2017-08-30T03:53:43.662Z,21.08
2017-08-30T03:54:15.293Z,21.08
2017-08-30T03:54:46.980Z,21.08
2017-08-30T03:55:18.695Z,21.07
2017-08-30T03:55:50.288Z,21.06
2017-08-30T03:56:22.180Z,21.08
2017-08-30T03:56:53.805Z,21.08
2017-08-30T03:57:25.475Z,21.07
2017-08-30T03:57:57.108Z,21.07
2017-08-30T03:58:28.689Z,21.06
2017-08-30T03:59:00.382Z,21.06
2017-08-30T03:59:32.026Z,21.07
2017-08-30T04:00:03.659Z,21.06
2017-08-30T04:00:35.591Z,21.06
2017-08-30T04:01:07.302Z,21.06
2017-08-30T04:01:39.011Z,21.06
2017-08-30T04:02:10.866Z,21.05
2017-08-30T04:02:42.668Z,21.05
2017-08-30T04:03:14.449Z,21.05
2017-08-30T04:03:46.021Z,21.04
2017-08-30T04:04:17.724Z,21.04
2017-08-30T04:04:49.389Z,21.04
2017-08-30T04:05:21.117Z,21.04
2017-08-30T04:05:52.970Z,21.04
2017-08-30T04:06:24.538Z,21.05
2017-08-30T04:06:56.264Z,21.04
2017-08-30T04:07:27.991Z,21.03
2017-08-30T04:07:59.839Z,21.03
2017-08-30T04:08:31.429Z,21.04
2017-08-30T04:09:03.225Z,21.03
2017-08-30T04:09:35.013Z,21.03
2017-08-30T04:10:06.731Z,21.02
2017-08-30T04:10:38.341Z,21.01
2017-08-30T04:11:09.960Z,21.01
2017-08-30T04:11:41.648Z,21.02
2017-08-30T04:12:13.249Z,21.02
2017-08-30T04:12:44.925Z,21.01
2017-08-30T04:13:16.564Z,21.00
2017-08-30T04:13:48.256Z,21.01
2017-08-30T04:14:19.958Z,21.02
2017-08-30T04:14:51.528Z,21.01
2017-08-30T04:15:23.235Z,21.01
2017-08-30T04:15:55.107Z,21.01
2017-08-30T04:16:26.706Z,21.02
2017-08-30T04:16:58.357Z,21.01
2017-08-30T04:17:30.006Z,21.01
2017-08-30T04:18:01.688Z,21.00
2017-08-30T04:18:33.582Z,21.00
2017-08-30T04:19:05.144Z,21.00
2017-08-30T04:19:36.898Z,21.00
2017-08-30T04:20:08.631Z,21.00
2017-08-30T04:20:40.478Z,20.99
2017-08-30T04:21:12.106Z,21.00
2017-08-30T04:21:43.765Z,20.98
2017-08-30T04:22:15.381Z,20.98
2017-08-30T04:22:47.047Z,20.99
2017-08-30T04:23:18.678Z,20.99
2017-08-30T04:23:50.329Z,20.99
2017-08-30T04:24:21.949Z,20.99
2017-08-30T04:24:53.608Z,20.98
2017-08-30T04:25:25.249Z,20.97
2017-08-30T04:25:56.912Z,20.98
2017-08-30T04:26:28.550Z,20.98
2017-08-30T04:27:00.281Z,20.98
2017-08-30T04:27:32.376Z,20.98
2017-08-30T04:28:04.074Z,20.98
2017-08-30T04:28:35.704Z,20.98
2017-08-30T04:29:07.350Z,20.97
2017-08-30T04:29:38.986Z,20.96
2017-08-30T04:30:10.627Z,20.97
2017-08-30T04:30:42.191Z,20.97
2017-08-30T04:31:13.757Z,20.97
2017-08-30T04:31:45.670Z,20.96
2017-08-30T04:32:17.554Z,20.97
2017-08-30T04:32:49.120Z,20.97
2017-08-30T04:33:20.704Z,20.96
2017-08-30T04:33:52.461Z,20.96
2017-08-30T04:34:24.705Z,20.96
2017-08-30T04:34:56.288Z,20.96
2017-08-30T04:35:28.017Z,20.95
2017-08-30T04:35:59.611Z,20.95
2017-08-30T04:36:31.209Z,20.96
2017-08-30T04:37:02.908Z,20.95
2017-08-30T04:37:34.662Z,20.95
2017-08-30T04:38:06.486Z,20.95
2017-08-30T04:38:38.140Z,20.94
2017-08-30T04:39:09.724Z,20.94
2017-08-30T04:39:41.349Z,20.93
2017-08-30T04:40:13.053Z,20.94
2017-08-30T04:40:44.713Z,20.93
2017-08-30T04:41:16.353Z,20.93
2017-08-30T04:41:47.992Z,20.93
2017-08-30T04:42:19.649Z,20.93
2017-08-30T04:42:51.284Z,20.93
2017-08-30T04:43:22.924Z,20.94
2017-08-30T04:43:54.672Z,20.93
2017-08-30T04:44:26.490Z,20.92
2017-08-30T04:44:58.086Z,20.93
2017-08-30T04:45:29.796Z,20.93
2017-08-30T04:46:01.447Z,20.92
2017-08-30T04:46:33.076Z,20.90
2017-08-30T04:47:04.702Z,20.92
2017-08-30T04:47:36.291Z,20.91
2017-08-30T04:48:08.026Z,20.92
2017-08-30T04:48:39.640Z,20.92
2017-08-30T04:49:11.284Z,20.92
2017-08-30T04:49:42.931Z,20.91
2017-08-30T04:50:14.674Z,20.90
2017-08-30T04:50:46.266Z,20.91
2017-08-30T04:51:18.083Z,20.91
2017-08-30T04:51:49.808Z,20.91
2017-08-30T04:52:21.437Z,20.89
2017-08-30T04:52:53.083Z,20.90
2017-08-30T04:53:24.716Z,20.90
2017-08-30T04:53:56.357Z,20.91
2017-08-30T04:54:27.997Z,20.91
2017-08-30T04:54:59.639Z,20.90
2017-08-30T04:55:31.247Z,20.91
2017-08-30T04:56:02.948Z,20.90
2017-08-30T04:56:34.510Z,20.90
2017-08-30T04:57:06.242Z,20.90
2017-08-30T04:57:37.858Z,20.89
2017-08-30T04:58:09.447Z,20.89
2017-08-30T04:58:41.274Z,20.89
2017-08-30T04:59:13.024Z,20.89
2017-08-30T04:59:44.723Z,20.88
2017-08-30T05:00:16.391Z,20.88
2017-08-30T05:00:47.996Z,20.89
2017-08-30T05:01:19.583Z,20.89
2017-08-30T05:01:51.348Z,20.89
2017-08-30T05:02:23.281Z,20.88
2017-08-30T05:02:54.917Z,20.88
2017-08-30T05:03:26.538Z,20.87
2017-08-30T05:03:58.163Z,20.88
2017-08-30T05:04:29.750Z,20.88
2017-08-30T05:05:01.330Z,20.88
2017-08-30T05:05:33.110Z,20.88
2017-08-30T05:06:04.728Z,20.88
2017-08-30T05:06:36.390Z,20.87
2017-08-30T05:07:08.086Z,20.87
2017-08-30T05:07:39.681Z,20.87
2017-08-30T05:08:11.321Z,20.86
2017-08-30T05:08:42.904Z,20.87
2017-08-30T05:09:14.606Z,20.87
2017-08-30T05:09:46.236Z,20.87
2017-08-30T05:10:17.886Z,20.87
2017-08-30T05:10:49.867Z,20.85
2017-08-30T05:11:21.743Z,20.86
2017-08-30T05:11:53.437Z,20.86
2017-08-30T05:12:25.019Z,20.87
2017-08-30T05:12:56.690Z,20.86
2017-08-30T05:13:28.328Z,20.86
2017-08-30T05:13:59.978Z,20.86
2017-08-30T05:14:31.578Z,20.85
2017-08-30T05:15:03.279Z,20.85
2017-08-30T05:15:34.944Z,20.85
2017-08-30T05:16:06.861Z,20.85
2017-08-30T05:16:38.515Z,20.85
2017-08-30T05:17:10.095Z,20.86
2017-08-30T05:17:41.773Z,20.85
2017-08-30T05:18:13.460Z,20.85
2017-08-30T05:18:45.098Z,20.85
2017-08-30T05:19:16.676Z,20.85
2017-08-30T05:19:48.292Z,20.85
2017-08-30T05:20:19.994Z,20.85
2017-08-30T05:20:51.636Z,20.85
2017-08-30T05:21:23.307Z,20.85
2017-08-30T05:21:55.032Z,20.84
2017-08-30T05:22:26.860Z,20.85
2017-08-30T05:22:58.429Z,20.84
2017-08-30T05:23:30.028Z,20.84
2017-08-30T05:24:01.790Z,20.84
2017-08-30T05:24:33.457Z,20.83
2017-08-30T05:25:05.156Z,20.84
2017-08-30T05:25:36.868Z,20.84
2017-08-30T05:26:08.655Z,20.84
2017-08-30T05:26:40.313Z,20.84
2017-08-30T05:27:11.936Z,20.83
2017-08-30T05:27:43.612Z,20.84
2017-08-30T05:28:15.238Z,20.83
2017-08-30T05:28:46.864Z,20.83
2017-08-30T05:29:18.515Z,20.83
2017-08-30T05:29:50.192Z,20.83
2017-08-30T05:30:21.806Z,20.83
2017-08-30T05:30:53.374Z,20.83
2017-08-30T05:31:25.099Z,20.83
2017-08-30T05:31:56.737Z,20.83
2017-08-30T05:32:28.386Z,20.82
2017-08-30T05:33:00.016Z,20.82
2017-08-30T05:33:31.671Z,20.83
2017-08-30T05:34:03.259Z,20.82
2017-08-30T05:34:34.931Z,20.82
2017-08-30T05:35:06.593Z,20.83
2017-08-30T05:35:38.213Z,20.83
2017-08-30T05:36:09.893Z,20.83
2017-08-30T05:36:41.457Z,20.82
2017-08-30T05:37:13.462Z,20.83
2017-08-30T05:37:45.101Z,20.82
2017-08-30T05:38:16.852Z,20.83
2017-08-30T05:38:48.556Z,20.83
2017-08-30T05:39:20.322Z,20.83
2017-08-30T05:39:51.997Z,20.82
2017-08-30T05:40:23.634Z,20.82
2017-08-30T05:40:55.238Z,20.82
2017-08-30T05:41:26.908Z,20.82
2017-08-30T05:41:58.543Z,20.82
2017-08-30T05:42:30.180Z,20.82
2017-08-30T05:43:01.760Z,20.83
2017-08-30T05:43:33.472Z,20.82
2017-08-30T05:44:05.115Z,20.82
2017-08-30T05:44:36.766Z,20.82
2017-08-30T05:45:08.411Z,20.81
2017-08-30T05:45:39.988Z,20.82
2017-08-30T05:46:11.662Z,20.82
2017-08-30T05:46:43.336Z,20.81
2017-08-30T05:47:15.070Z,20.81
2017-08-30T05:47:46.919Z,20.82
2017-08-30T05:48:18.556Z,20.80
2017-08-30T05:48:50.202Z,20.82
2017-08-30T05:49:21.825Z,20.81
2017-08-30T05:49:53.480Z,20.82
2017-08-30T05:50:25.132Z,20.81
2017-08-30T05:50:56.753Z,20.81
2017-08-30T05:51:28.406Z,20.81
2017-08-30T05:52:00.040Z,20.81
2017-08-30T05:52:31.684Z,20.80
2017-08-30T05:53:03.352Z,20.81
2017-08-30T05:53:34.965Z,20.80
2017-08-30T05:54:06.624Z,20.80
2017-08-30T05:54:38.208Z,20.80
2017-08-30T05:55:09.899Z,20.80
2017-08-30T05:55:41.490Z,20.80
2017-08-30T05:56:13.196Z,20.80
2017-08-30T05:56:44.752Z,20.80
2017-08-30T05:57:16.460Z,20.80
2017-08-30T05:57:48.095Z,20.80
2017-08-30T05:58:19.740Z,20.80
2017-08-30T05:58:51.600Z,20.80
2017-08-30T05:59:23.325Z,20.79
2017-08-30T05:59:54.989Z,20.80
2017-08-30T06:00:26.629Z,20.80
2017-08-30T06:00:58.191Z,20.79
2017-08-30T06:01:29.914Z,20.79
2017-08-30T06:02:01.534Z,20.79
2017-08-30T06:02:33.183Z,20.79
2017-08-30T06:03:04.844Z,20.78
2017-08-30T06:03:36.725Z,20.80
2017-08-30T06:04:08.452Z,20.79
2017-08-30T06:04:40.174Z,20.80
2017-08-30T06:05:11.973Z,20.79
2017-08-30T06:05:43.644Z,20.79
2017-08-30T06:06:15.298Z,20.79
2017-08-30T06:06:46.940Z,20.78
2017-08-30T06:07:18.600Z,20.78
2017-08-30T06:07:50.229Z,20.78
2017-08-30T06:08:21.795Z,20.79
2017-08-30T06:08:53.741Z,20.78
2017-08-30T06:09:25.323Z,20.78
2017-08-30T06:09:57.136Z,20.78
2017-08-30T06:10:28.732Z,20.79
2017-08-30T06:11:00.315Z,20.78
2017-08-30T06:11:32.318Z,20.78
2017-08-30T06:12:03.986Z,20.79
2017-08-30T06:12:35.617Z,20.78
2017-08-30T06:13:07.277Z,20.77
2017-08-30T06:13:38.934Z,20.77
2017-08-30T06:14:10.849Z,20.78
2017-08-30T06:14:42.434Z,20.77
2017-08-30T06:15:14.129Z,20.77
2017-08-30T06:15:45.769Z,20.77
2017-08-30T06:16:17.334Z,20.77
2017-08-30T06:16:49.059Z,20.76
2017-08-30T06:17:20.613Z,20.77
2017-08-30T06:17:52.331Z,20.77
2017-08-30T06:18:23.973Z,20.77
2017-08-30T06:18:55.620Z,20.78
2017-08-30T06:19:27.265Z,20.77
2017-08-30T06:19:58.902Z,20.77
2017-08-30T06:20:30.554Z,20.76
2017-08-30T06:21:02.182Z,20.77
2017-08-30T06:21:33.798Z,20.67
2017-08-30T06:22:05.484Z,20.77
2017-08-30T06:22:37.113Z,20.77
2017-08-30T06:23:08.772Z,20.76
2017-08-30T06:23:40.394Z,20.76
2017-08-30T06:24:12.049Z,20.77
2017-08-30T06:24:43.981Z,20.76
2017-08-30T06:25:15.552Z,20.76
2017-08-30T06:25:47.263Z,20.77
2017-08-30T06:26:18.939Z,20.76
2017-08-30T06:26:50.608Z,20.75
2017-08-30T06:27:22.207Z,20.75
2017-08-30T06:27:53.882Z,20.76
2017-08-30T06:28:25.491Z,20.76
2017-08-30T06:28:57.126Z,20.77
2017-08-30T06:29:28.764Z,20.76
2017-08-30T06:30:00.733Z,20.76
2017-08-30T06:30:32.325Z,20.75
2017-08-30T06:31:03.995Z,20.75
2017-08-30T06:31:35.651Z,20.76
2017-08-30T06:32:07.222Z,20.76
2017-08-30T06:32:38.924Z,20.75
2017-08-30T06:33:10.603Z,20.75
2017-08-30T06:33:42.260Z,20.75
2017-08-30T06:34:13.963Z,20.74
2017-08-30T06:34:45.825Z,20.75
2017-08-30T06:35:17.869Z,20.75
2017-08-30T06:35:49.441Z,20.75
2017-08-30T06:36:21.158Z,20.74
2017-08-30T06:36:52.984Z,20.74
2017-08-30T06:37:24.560Z,20.75
2017-08-30T06:37:56.272Z,20.75
2017-08-30T06:38:27.906Z,20.75
2017-08-30T06:38:59.540Z,20.75
2017-08-30T06:39:31.197Z,20.75
2017-08-30T06:40:03.117Z,20.74
2017-08-30T06:40:34.798Z,20.73
2017-08-30T06:41:06.539Z,20.74
2017-08-30T06:41:38.486Z,20.74
2017-08-30T06:42:10.179Z,20.74
2017-08-30T06:42:41.974Z,20.74
2017-08-30T06:43:13.625Z,20.74
2017-08-30T06:43:45.268Z,20.72
2017-08-30T06:44:16.906Z,20.72
2017-08-30T06:44:48.563Z,20.73
2017-08-30T06:45:20.214Z,20.74
2017-08-30T06:45:51.861Z,20.73
2017-08-30T06:46:23.478Z,20.73
2017-08-30T06:46:55.119Z,20.74
2017-08-30T06:47:26.694Z,20.73
2017-08-30T06:47:58.401Z,20.73
2017-08-30T06:48:30.138Z,20.72